sensor_id;sensor_type;location;lat;lon;timestamp;P1;durP1;ratioP1;P2;durP2;ratioP2
61685;SDS011;47592;45.904;8.978;2023-03-05T00:00:19;31.73;;;17.67;;
61685;SDS011;47592;45.904;8.978;2023-03-05T00:02:44;33.22;;;18.08;;
61685;SDS011;47592;45.904;8.978;2023-03-05T00:05:09;27.98;;;17.70;;
61685;SDS011;47592;45.904;8.978;2023-03-05T00:07:35;28.95;;;17.80;;
61685;SDS011;47592;45.904;8.978;2023-03-05T00:10:02;31.90;;;18.42;;
61685;SDS011;47592;45.904;8.978;2023-03-05T00:12:29;31.27;;;18.20;;
61685;SDS011;47592;45.904;8.978;2023-03-05T00:14:54;29.17;;;17.70;;
61685;SDS011;47592;45.904;8.978;2023-03-05T00:17:19;29.50;;;17.55;;
61685;SDS011;47592;45.904;8.978;2023-03-05T00:19:45;27.02;;;17.83;;
61685;SDS011;47592;45.904;8.978;2023-03-05T00:22:10;28.17;;;17.58;;
61685;SDS011;47592;45.904;8.978;2023-03-05T00:24:36;26.17;;;16.48;;
61685;SDS011;47592;45.904;8.978;2023-03-05T00:27:01;27.05;;;17.05;;
61685;SDS011;47592;45.904;8.978;2023-03-05T00:29:26;28.33;;;16.85;;
61685;SDS011;47592;45.904;8.978;2023-03-05T00:31:52;30.30;;;17.10;;
61685;SDS011;47592;45.904;8.978;2023-03-05T00:34:18;38.65;;;22.00;;
61685;SDS011;47592;45.904;8.978;2023-03-05T00:36:45;29.13;;;17.75;;
61685;SDS011;47592;45.904;8.978;2023-03-05T00:39:12;29.20;;;17.58;;
61685;SDS011;47592;45.904;8.978;2023-03-05T00:41:38;27.90;;;17.15;;
61685;SDS011;47592;45.904;8.978;2023-03-05T00:44:04;26.17;;;15.90;;
61685;SDS011;47592;45.904;8.978;2023-03-05T00:46:30;26.13;;;15.02;;
61685;SDS011;47592;45.904;8.978;2023-03-05T00:48:55;28.30;;;16.80;;
61685;SDS011;47592;45.904;8.978;2023-03-05T00:51:21;29.23;;;16.33;;
61685;SDS011;47592;45.904;8.978;2023-03-05T00:53:47;25.65;;;15.82;;
61685;SDS011;47592;45.904;8.978;2023-03-05T00:56:12;27.10;;;16.20;;
61685;SDS011;47592;45.904;8.978;2023-03-05T00:58:38;26.98;;;16.08;;
61685;SDS011;47592;45.904;8.978;2023-03-05T01:01:04;31.83;;;17.02;;
61685;SDS011;47592;45.904;8.978;2023-03-05T01:03:30;24.67;;;15.82;;
61685;SDS011;47592;45.904;8.978;2023-03-05T01:05:56;22.95;;;15.20;;
61685;SDS011;47592;45.904;8.978;2023-03-05T01:08:23;25.60;;;15.48;;
61685;SDS011;47592;45.904;8.978;2023-03-05T01:10:48;25.45;;;15.07;;
61685;SDS011;47592;45.904;8.978;2023-03-05T01:13:14;24.40;;;14.98;;
61685;SDS011;47592;45.904;8.978;2023-03-05T01:15:39;25.85;;;14.35;;
61685;SDS011;47592;45.904;8.978;2023-03-05T01:18:05;23.42;;;15.27;;
61685;SDS011;47592;45.904;8.978;2023-03-05T01:20:30;24.70;;;14.38;;
61685;SDS011;47592;45.904;8.978;2023-03-05T01:22:56;25.98;;;15.40;;
61685;SDS011;47592;45.904;8.978;2023-03-05T01:25:23;25.67;;;14.52;;
61685;SDS011;47592;45.904;8.978;2023-03-05T01:27:49;24.02;;;15.38;;
61685;SDS011;47592;45.904;8.978;2023-03-05T01:30:14;23.80;;;14.50;;
61685;SDS011;47592;45.904;8.978;2023-03-05T01:32:40;23.83;;;14.00;;
61685;SDS011;47592;45.904;8.978;2023-03-05T01:35:06;25.58;;;16.10;;
61685;SDS011;47592;45.904;8.978;2023-03-05T01:37:32;26.30;;;15.25;;
61685;SDS011;47592;45.904;8.978;2023-03-05T01:39:58;26.88;;;15.00;;
61685;SDS011;47592;45.904;8.978;2023-03-05T01:42:23;27.05;;;15.10;;
61685;SDS011;47592;45.904;8.978;2023-03-05T01:47:34;22.48;;;12.88;;
61685;SDS011;47592;45.904;8.978;2023-03-05T01:49:59;24.38;;;14.13;;
61685;SDS011;47592;45.904;8.978;2023-03-05T01:52:25;25.33;;;14.13;;
61685;SDS011;47592;45.904;8.978;2023-03-05T01:55:02;24.33;;;14.75;;
61685;SDS011;47592;45.904;8.978;2023-03-05T01:57:58;23.60;;;14.52;;
61685;SDS011;47592;45.904;8.978;2023-03-05T02:00:25;23.50;;;14.60;;
61685;SDS011;47592;45.904;8.978;2023-03-05T02:03:11;24.70;;;14.43;;
61685;SDS011;47592;45.904;8.978;2023-03-05T02:05:38;28.73;;;15.07;;
61685;SDS011;47592;45.904;8.978;2023-03-05T02:08:08;23.05;;;14.02;;
61685;SDS011;47592;45.904;8.978;2023-03-05T02:10:36;24.45;;;14.25;;
61685;SDS011;47592;45.904;8.978;2023-03-05T02:13:07;23.90;;;13.95;;
61685;SDS011;47592;45.904;8.978;2023-03-05T02:15:34;27.23;;;14.38;;
61685;SDS011;47592;45.904;8.978;2023-03-05T02:17:59;27.90;;;15.05;;
61685;SDS011;47592;45.904;8.978;2023-03-05T02:20:27;26.10;;;14.38;;
61685;SDS011;47592;45.904;8.978;2023-03-05T02:22:54;27.50;;;14.07;;
61685;SDS011;47592;45.904;8.978;2023-03-05T02:30:28;23.60;;;14.63;;
61685;SDS011;47592;45.904;8.978;2023-03-05T02:32:55;25.38;;;15.18;;
61685;SDS011;47592;45.904;8.978;2023-03-05T02:35:20;26.08;;;13.98;;
61685;SDS011;47592;45.904;8.978;2023-03-05T02:37:46;25.05;;;14.30;;
61685;SDS011;47592;45.904;8.978;2023-03-05T02:40:11;25.98;;;13.60;;
61685;SDS011;47592;45.904;8.978;2023-03-05T02:42:37;22.88;;;13.20;;
61685;SDS011;47592;45.904;8.978;2023-03-05T02:45:03;23.35;;;14.48;;
61685;SDS011;47592;45.904;8.978;2023-03-05T02:47:29;24.35;;;13.90;;
61685;SDS011;47592;45.904;8.978;2023-03-05T02:49:55;23.27;;;14.43;;
61685;SDS011;47592;45.904;8.978;2023-03-05T02:52:20;25.27;;;15.25;;
61685;SDS011;47592;45.904;8.978;2023-03-05T02:54:49;23.25;;;13.88;;
61685;SDS011;47592;45.904;8.978;2023-03-05T02:57:15;24.35;;;14.13;;
61685;SDS011;47592;45.904;8.978;2023-03-05T02:59:41;22.60;;;13.68;;
61685;SDS011;47592;45.904;8.978;2023-03-05T03:02:06;23.50;;;13.98;;
61685;SDS011;47592;45.904;8.978;2023-03-05T03:04:32;25.20;;;13.38;;
61685;SDS011;47592;45.904;8.978;2023-03-05T03:06:57;21.90;;;12.85;;
61685;SDS011;47592;45.904;8.978;2023-03-05T03:09:23;23.92;;;13.48;;
61685;SDS011;47592;45.904;8.978;2023-03-05T03:11:49;23.88;;;13.73;;
61685;SDS011;47592;45.904;8.978;2023-03-05T03:14:14;30.08;;;13.52;;
61685;SDS011;47592;45.904;8.978;2023-03-05T03:16:40;23.67;;;14.50;;
61685;SDS011;47592;45.904;8.978;2023-03-05T03:19:05;25.33;;;14.32;;
61685;SDS011;47592;45.904;8.978;2023-03-05T03:21:30;23.63;;;14.13;;
61685;SDS011;47592;45.904;8.978;2023-03-05T03:23:56;21.42;;;13.40;;
61685;SDS011;47592;45.904;8.978;2023-03-05T03:26:21;23.55;;;13.48;;
61685;SDS011;47592;45.904;8.978;2023-03-05T03:28:47;24.70;;;12.27;;
61685;SDS011;47592;45.904;8.978;2023-03-05T03:31:12;29.30;;;14.30;;
61685;SDS011;47592;45.904;8.978;2023-03-05T03:33:38;21.95;;;14.00;;
61685;SDS011;47592;45.904;8.978;2023-03-05T03:36:03;24.73;;;14.13;;
61685;SDS011;47592;45.904;8.978;2023-03-05T03:38:29;21.67;;;13.85;;
61685;SDS011;47592;45.904;8.978;2023-03-05T03:40:55;25.42;;;14.32;;
61685;SDS011;47592;45.904;8.978;2023-03-05T03:43:20;25.40;;;13.65;;
61685;SDS011;47592;45.904;8.978;2023-03-05T03:45:46;23.92;;;12.23;;
61685;SDS011;47592;45.904;8.978;2023-03-05T03:48:11;21.15;;;13.70;;
61685;SDS011;47592;45.904;8.978;2023-03-05T03:50:38;22.15;;;13.73;;
61685;SDS011;47592;45.904;8.978;2023-03-05T03:53:06;21.80;;;13.27;;
61685;SDS011;47592;45.904;8.978;2023-03-05T03:55:31;21.52;;;12.48;;
61685;SDS011;47592;45.904;8.978;2023-03-05T03:57:57;22.60;;;13.02;;
61685;SDS011;47592;45.904;8.978;2023-03-05T04:00:23;19.77;;;12.93;;
61685;SDS011;47592;45.904;8.978;2023-03-05T04:02:48;25.33;;;13.70;;
61685;SDS011;47592;45.904;8.978;2023-03-05T04:05:13;20.70;;;12.20;;
61685;SDS011;47592;45.904;8.978;2023-03-05T04:07:39;23.65;;;13.25;;
61685;SDS011;47592;45.904;8.978;2023-03-05T04:10:05;21.48;;;12.40;;
61685;SDS011;47592;45.904;8.978;2023-03-05T04:12:30;26.58;;;13.27;;
61685;SDS011;47592;45.904;8.978;2023-03-05T04:14:56;25.05;;;13.45;;
61685;SDS011;47592;45.904;8.978;2023-03-05T04:17:21;20.92;;;12.65;;
61685;SDS011;47592;45.904;8.978;2023-03-05T04:19:47;23.10;;;13.13;;
61685;SDS011;47592;45.904;8.978;2023-03-05T04:22:16;27.05;;;13.05;;
61685;SDS011;47592;45.904;8.978;2023-03-05T04:24:42;25.88;;;14.15;;
61685;SDS011;47592;45.904;8.978;2023-03-05T04:27:08;21.70;;;13.40;;
61685;SDS011;47592;45.904;8.978;2023-03-05T04:29:33;21.20;;;12.63;;
61685;SDS011;47592;45.904;8.978;2023-03-05T04:31:59;21.55;;;13.43;;
61685;SDS011;47592;45.904;8.978;2023-03-05T04:34:25;23.02;;;12.95;;
61685;SDS011;47592;45.904;8.978;2023-03-05T04:36:51;21.45;;;12.35;;
61685;SDS011;47592;45.904;8.978;2023-03-05T04:39:16;21.48;;;13.30;;
61685;SDS011;47592;45.904;8.978;2023-03-05T04:41:44;24.23;;;13.73;;
61685;SDS011;47592;45.904;8.978;2023-03-05T04:44:10;23.00;;;12.68;;
61685;SDS011;47592;45.904;8.978;2023-03-05T04:46:36;21.63;;;11.60;;
61685;SDS011;47592;45.904;8.978;2023-03-05T04:49:01;20.90;;;12.77;;
61685;SDS011;47592;45.904;8.978;2023-03-05T04:51:27;23.10;;;13.48;;
61685;SDS011;47592;45.904;8.978;2023-03-05T04:53:52;23.45;;;12.63;;
61685;SDS011;47592;45.904;8.978;2023-03-05T04:56:17;21.25;;;12.07;;
61685;SDS011;47592;45.904;8.978;2023-03-05T04:58:43;23.05;;;11.57;;
61685;SDS011;47592;45.904;8.978;2023-03-05T05:01:08;21.58;;;12.25;;
61685;SDS011;47592;45.904;8.978;2023-03-05T05:03:34;24.38;;;13.88;;
61685;SDS011;47592;45.904;8.978;2023-03-05T05:06:00;20.95;;;12.70;;
61685;SDS011;47592;45.904;8.978;2023-03-05T05:08:26;19.83;;;11.82;;
61685;SDS011;47592;45.904;8.978;2023-03-05T05:10:58;20.95;;;11.98;;
61685;SDS011;47592;45.904;8.978;2023-03-05T05:13:26;23.20;;;12.88;;
61685;SDS011;47592;45.904;8.978;2023-03-05T05:15:51;23.95;;;13.27;;
61685;SDS011;47592;45.904;8.978;2023-03-05T05:18:17;22.35;;;11.88;;
61685;SDS011;47592;45.904;8.978;2023-03-05T05:20:42;22.38;;;12.05;;
61685;SDS011;47592;45.904;8.978;2023-03-05T05:23:08;21.33;;;12.52;;
61685;SDS011;47592;45.904;8.978;2023-03-05T05:25:33;24.88;;;13.00;;
61685;SDS011;47592;45.904;8.978;2023-03-05T05:27:59;23.17;;;12.90;;
61685;SDS011;47592;45.904;8.978;2023-03-05T05:30:25;24.13;;;12.88;;
61685;SDS011;47592;45.904;8.978;2023-03-05T05:32:50;23.98;;;13.32;;
61685;SDS011;47592;45.904;8.978;2023-03-05T05:35:16;21.70;;;12.40;;
61685;SDS011;47592;45.904;8.978;2023-03-05T05:37:41;21.40;;;12.00;;
61685;SDS011;47592;45.904;8.978;2023-03-05T05:40:07;22.40;;;12.52;;
61685;SDS011;47592;45.904;8.978;2023-03-05T05:42:33;21.30;;;12.23;;
61685;SDS011;47592;45.904;8.978;2023-03-05T05:44:59;22.45;;;12.85;;
61685;SDS011;47592;45.904;8.978;2023-03-05T05:47:26;19.33;;;12.25;;
61685;SDS011;47592;45.904;8.978;2023-03-05T05:49:52;22.02;;;12.32;;
61685;SDS011;47592;45.904;8.978;2023-03-05T05:52:17;21.25;;;12.85;;
61685;SDS011;47592;45.904;8.978;2023-03-05T05:54:43;23.83;;;12.88;;
61685;SDS011;47592;45.904;8.978;2023-03-05T05:57:08;22.75;;;12.57;;
61685;SDS011;47592;45.904;8.978;2023-03-05T05:59:34;22.80;;;12.82;;
61685;SDS011;47592;45.904;8.978;2023-03-05T06:01:59;21.45;;;12.27;;
61685;SDS011;47592;45.904;8.978;2023-03-05T06:04:24;19.15;;;11.50;;
61685;SDS011;47592;45.904;8.978;2023-03-05T06:06:50;20.90;;;12.32;;
61685;SDS011;47592;45.904;8.978;2023-03-05T06:09:15;23.13;;;12.88;;
61685;SDS011;47592;45.904;8.978;2023-03-05T06:11:41;23.20;;;13.10;;
61685;SDS011;47592;45.904;8.978;2023-03-05T06:14:06;21.50;;;12.95;;
61685;SDS011;47592;45.904;8.978;2023-03-05T06:16:32;23.60;;;12.38;;
61685;SDS011;47592;45.904;8.978;2023-03-05T06:18:58;23.90;;;13.07;;
61685;SDS011;47592;45.904;8.978;2023-03-05T06:21:24;21.67;;;12.65;;
61685;SDS011;47592;45.904;8.978;2023-03-05T06:23:50;23.75;;;13.25;;
61685;SDS011;47592;45.904;8.978;2023-03-05T06:26:16;20.00;;;12.65;;
61685;SDS011;47592;45.904;8.978;2023-03-05T06:28:44;22.55;;;12.73;;
61685;SDS011;47592;45.904;8.978;2023-03-05T06:31:10;24.25;;;12.20;;
61685;SDS011;47592;45.904;8.978;2023-03-05T06:33:38;21.95;;;12.73;;
61685;SDS011;47592;45.904;8.978;2023-03-05T06:36:04;21.33;;;13.00;;
61685;SDS011;47592;45.904;8.978;2023-03-05T06:38:31;19.75;;;11.90;;
61685;SDS011;47592;45.904;8.978;2023-03-05T06:41:04;21.20;;;11.93;;
61685;SDS011;47592;45.904;8.978;2023-03-05T06:43:36;22.48;;;12.30;;
61685;SDS011;47592;45.904;8.978;2023-03-05T06:46:06;21.98;;;12.32;;
61685;SDS011;47592;45.904;8.978;2023-03-05T06:48:42;22.23;;;12.02;;
61685;SDS011;47592;45.904;8.978;2023-03-05T06:51:12;22.63;;;12.73;;
61685;SDS011;47592;45.904;8.978;2023-03-05T06:53:39;21.05;;;11.90;;
61685;SDS011;47592;45.904;8.978;2023-03-05T06:56:05;21.13;;;11.82;;
61685;SDS011;47592;45.904;8.978;2023-03-05T06:58:30;20.75;;;11.90;;
61685;SDS011;47592;45.904;8.978;2023-03-05T07:00:55;20.92;;;12.52;;
61685;SDS011;47592;45.904;8.978;2023-03-05T07:03:21;21.95;;;12.85;;
61685;SDS011;47592;45.904;8.978;2023-03-05T07:05:46;21.42;;;12.10;;
61685;SDS011;47592;45.904;8.978;2023-03-05T07:08:12;20.70;;;11.88;;
61685;SDS011;47592;45.904;8.978;2023-03-05T07:10:41;20.10;;;11.85;;
61685;SDS011;47592;45.904;8.978;2023-03-05T07:15:33;24.25;;;11.73;;
61685;SDS011;47592;45.904;8.978;2023-03-05T07:17:58;19.10;;;11.43;;
61685;SDS011;47592;45.904;8.978;2023-03-05T07:20:24;19.08;;;11.50;;
61685;SDS011;47592;45.904;8.978;2023-03-05T07:22:49;20.80;;;11.32;;
61685;SDS011;47592;45.904;8.978;2023-03-05T07:25:14;20.63;;;11.90;;
61685;SDS011;47592;45.904;8.978;2023-03-05T07:27:45;20.65;;;11.88;;
61685;SDS011;47592;45.904;8.978;2023-03-05T07:30:11;21.17;;;12.32;;
61685;SDS011;47592;45.904;8.978;2023-03-05T07:32:37;19.13;;;11.75;;
61685;SDS011;47592;45.904;8.978;2023-03-05T07:35:02;21.35;;;11.48;;
61685;SDS011;47592;45.904;8.978;2023-03-05T07:37:28;20.20;;;11.05;;
61685;SDS011;47592;45.904;8.978;2023-03-05T07:39:53;18.77;;;11.50;;
61685;SDS011;47592;45.904;8.978;2023-03-05T07:42:19;17.95;;;11.20;;
61685;SDS011;47592;45.904;8.978;2023-03-05T07:44:44;23.67;;;11.82;;
61685;SDS011;47592;45.904;8.978;2023-03-05T07:47:10;19.95;;;11.65;;
61685;SDS011;47592;45.904;8.978;2023-03-05T07:49:35;20.52;;;11.70;;
61685;SDS011;47592;45.904;8.978;2023-03-05T07:52:01;17.85;;;11.32;;
61685;SDS011;47592;45.904;8.978;2023-03-05T07:54:26;22.33;;;11.20;;
61685;SDS011;47592;45.904;8.978;2023-03-05T07:56:53;19.90;;;11.02;;
61685;SDS011;47592;45.904;8.978;2023-03-05T07:59:18;20.17;;;11.85;;
61685;SDS011;47592;45.904;8.978;2023-03-05T08:01:44;18.15;;;11.43;;
61685;SDS011;47592;45.904;8.978;2023-03-05T08:04:10;19.48;;;11.57;;
61685;SDS011;47592;45.904;8.978;2023-03-05T08:06:38;19.48;;;12.15;;
61685;SDS011;47592;45.904;8.978;2023-03-05T08:09:04;17.47;;;10.87;;
61685;SDS011;47592;45.904;8.978;2023-03-05T08:11:30;20.20;;;12.15;;
61685;SDS011;47592;45.904;8.978;2023-03-05T08:13:55;18.85;;;12.02;;
61685;SDS011;47592;45.904;8.978;2023-03-05T08:16:23;18.70;;;10.63;;
61685;SDS011;47592;45.904;8.978;2023-03-05T08:18:50;19.48;;;11.18;;
61685;SDS011;47592;45.904;8.978;2023-03-05T08:21:20;20.48;;;11.73;;
61685;SDS011;47592;45.904;8.978;2023-03-05T08:23:51;23.77;;;11.23;;
61685;SDS011;47592;45.904;8.978;2023-03-05T08:26:18;19.77;;;11.68;;
61685;SDS011;47592;45.904;8.978;2023-03-05T08:28:44;20.63;;;11.52;;
61685;SDS011;47592;45.904;8.978;2023-03-05T08:31:10;19.35;;;11.43;;
61685;SDS011;47592;45.904;8.978;2023-03-05T08:33:37;19.98;;;11.40;;
61685;SDS011;47592;45.904;8.978;2023-03-05T08:36:03;18.05;;;12.00;;
61685;SDS011;47592;45.904;8.978;2023-03-05T08:38:29;17.65;;;11.10;;
61685;SDS011;47592;45.904;8.978;2023-03-05T08:40:54;18.75;;;11.13;;
61685;SDS011;47592;45.904;8.978;2023-03-05T08:43:20;20.33;;;11.88;;
61685;SDS011;47592;45.904;8.978;2023-03-05T08:45:45;22.55;;;11.20;;
61685;SDS011;47592;45.904;8.978;2023-03-05T08:48:11;18.73;;;11.13;;
61685;SDS011;47592;45.904;8.978;2023-03-05T08:50:37;17.42;;;10.63;;
61685;SDS011;47592;45.904;8.978;2023-03-05T08:53:02;22.30;;;12.35;;
61685;SDS011;47592;45.904;8.978;2023-03-05T08:55:28;20.73;;;11.05;;
61685;SDS011;47592;45.904;8.978;2023-03-05T08:57:53;22.13;;;11.77;;
61685;SDS011;47592;45.904;8.978;2023-03-05T09:00:19;16.67;;;10.32;;
61685;SDS011;47592;45.904;8.978;2023-03-05T09:02:44;19.08;;;11.65;;
61685;SDS011;47592;45.904;8.978;2023-03-05T09:05:10;20.00;;;11.13;;
61685;SDS011;47592;45.904;8.978;2023-03-05T09:07:35;21.63;;;12.32;;
61685;SDS011;47592;45.904;8.978;2023-03-05T09:10:02;32.85;;;16.92;;
61685;SDS011;47592;45.904;8.978;2023-03-05T09:12:28;23.25;;;13.27;;
61685;SDS011;47592;45.904;8.978;2023-03-05T09:14:54;16.95;;;9.30;;
61685;SDS011;47592;45.904;8.978;2023-03-05T09:17:20;16.13;;;8.60;;
61685;SDS011;47592;45.904;8.978;2023-03-05T09:19:46;19.63;;;9.55;;
61685;SDS011;47592;45.904;8.978;2023-03-05T09:22:11;22.83;;;12.48;;
61685;SDS011;47592;45.904;8.978;2023-03-05T09:24:36;18.70;;;10.35;;
61685;SDS011;47592;45.904;8.978;2023-03-05T09:27:02;20.23;;;11.63;;
61685;SDS011;47592;45.904;8.978;2023-03-05T09:29:27;21.40;;;10.20;;
61685;SDS011;47592;45.904;8.978;2023-03-05T09:31:55;21.48;;;10.52;;
61685;SDS011;47592;45.904;8.978;2023-03-05T09:34:21;16.80;;;9.70;;
61685;SDS011;47592;45.904;8.978;2023-03-05T09:36:49;17.17;;;9.55;;
61685;SDS011;47592;45.904;8.978;2023-03-05T09:39:14;16.98;;;8.77;;
61685;SDS011;47592;45.904;8.978;2023-03-05T09:41:51;13.73;;;6.55;;
61685;SDS011;47592;45.904;8.978;2023-03-05T09:44:50;11.63;;;5.25;;
61685;SDS011;47592;45.904;8.978;2023-03-05T09:55:12;15.02;;;7.93;;
61685;SDS011;47592;45.904;8.978;2023-03-05T09:57:48;13.57;;;6.03;;
61685;SDS011;47592;45.904;8.978;2023-03-05T10:00:25;11.77;;;5.47;;
61685;SDS011;47592;45.904;8.978;2023-03-05T10:03:03;10.60;;;4.47;;
61685;SDS011;47592;45.904;8.978;2023-03-05T10:08:02;10.32;;;4.47;;
61685;SDS011;47592;45.904;8.978;2023-03-05T10:19:01;10.60;;;3.80;;
61685;SDS011;47592;45.904;8.978;2023-03-05T10:21:49;9.23;;;3.58;;
61685;SDS011;47592;45.904;8.978;2023-03-05T10:24:26;9.40;;;3.83;;
61685;SDS011;47592;45.904;8.978;2023-03-05T10:27:19;11.82;;;4.20;;
61685;SDS011;47592;45.904;8.978;2023-03-05T10:40:37;11.10;;;5.53;;
61685;SDS011;47592;45.904;8.978;2023-03-05T10:45:51;13.55;;;6.38;;
61685;SDS011;47592;45.904;8.978;2023-03-05T10:51:37;16.33;;;7.53;;
61685;SDS011;47592;45.904;8.978;2023-03-05T10:53:54;13.90;;;6.60;;
61685;SDS011;47592;45.904;8.978;2023-03-05T10:56:23;13.35;;;6.68;;
61685;SDS011;47592;45.904;8.978;2023-03-05T10:58:50;17.10;;;7.40;;
61685;SDS011;47592;45.904;8.978;2023-03-05T11:01:20;14.35;;;7.25;;
61685;SDS011;47592;45.904;8.978;2023-03-05T11:06:38;16.67;;;8.48;;
61685;SDS011;47592;45.904;8.978;2023-03-05T11:09:14;17.30;;;8.52;;
61685;SDS011;47592;45.904;8.978;2023-03-05T11:11:42;16.42;;;8.45;;
61685;SDS011;47592;45.904;8.978;2023-03-05T11:14:22;17.55;;;9.63;;
61685;SDS011;47592;45.904;8.978;2023-03-05T11:16:54;15.68;;;8.35;;
61685;SDS011;47592;45.904;8.978;2023-03-05T11:19:25;16.75;;;9.05;;
61685;SDS011;47592;45.904;8.978;2023-03-05T11:24:41;21.83;;;10.45;;
61685;SDS011;47592;45.904;8.978;2023-03-05T11:29:57;22.83;;;11.45;;
61685;SDS011;47592;45.904;8.978;2023-03-05T11:32:24;18.10;;;10.75;;
61685;SDS011;47592;45.904;8.978;2023-03-05T11:34:52;22.17;;;11.07;;
61685;SDS011;47592;45.904;8.978;2023-03-05T11:37:27;22.60;;;13.20;;
61685;SDS011;47592;45.904;8.978;2023-03-05T11:40:04;24.95;;;14.70;;
61685;SDS011;47592;45.904;8.978;2023-03-05T11:42:43;26.00;;;14.40;;
61685;SDS011;47592;45.904;8.978;2023-03-05T11:45:15;37.75;;;17.88;;
61685;SDS011;47592;45.904;8.978;2023-03-05T11:47:43;28.73;;;15.30;;
61685;SDS011;47592;45.904;8.978;2023-03-05T11:52:47;28.35;;;15.60;;
61685;SDS011;47592;45.904;8.978;2023-03-05T11:57:43;25.73;;;14.43;;
61685;SDS011;47592;45.904;8.978;2023-03-05T12:00:45;26.13;;;14.55;;
61685;SDS011;47592;45.904;8.978;2023-03-05T12:03:13;26.20;;;15.00;;
61685;SDS011;47592;45.904;8.978;2023-03-05T12:05:41;25.38;;;15.63;;
61685;SDS011;47592;45.904;8.978;2023-03-05T12:08:14;27.25;;;15.75;;
61685;SDS011;47592;45.904;8.978;2023-03-05T12:10:47;25.42;;;15.70;;
61685;SDS011;47592;45.904;8.978;2023-03-05T12:18:32;24.55;;;14.68;;
61685;SDS011;47592;45.904;8.978;2023-03-05T12:26:17;24.35;;;12.93;;
61685;SDS011;47592;45.904;8.978;2023-03-05T12:31:27;20.05;;;11.88;;
61685;SDS011;47592;45.904;8.978;2023-03-05T12:34:33;19.73;;;12.40;;
61685;SDS011;47592;45.904;8.978;2023-03-05T12:37:00;21.00;;;12.85;;
61685;SDS011;47592;45.904;8.978;2023-03-05T12:47:39;21.85;;;12.90;;
61685;SDS011;47592;45.904;8.978;2023-03-05T12:52:54;18.40;;;10.55;;
61685;SDS011;47592;45.904;8.978;2023-03-05T12:58:12;27.70;;;15.30;;
61685;SDS011;47592;45.904;8.978;2023-03-05T13:00:58;25.52;;;14.88;;
61685;SDS011;47592;45.904;8.978;2023-03-05T13:03:35;24.27;;;16.08;;
61685;SDS011;47592;45.904;8.978;2023-03-05T13:06:04;21.05;;;13.40;;
61685;SDS011;47592;45.904;8.978;2023-03-05T13:08:35;22.80;;;14.15;;
61685;SDS011;47592;45.904;8.978;2023-03-05T13:13:35;24.83;;;14.20;;
61685;SDS011;47592;45.904;8.978;2023-03-05T13:16:02;22.25;;;13.27;;
61685;SDS011;47592;45.904;8.978;2023-03-05T13:18:29;23.92;;;14.18;;
61685;SDS011;47592;45.904;8.978;2023-03-05T13:21:03;24.02;;;15.23;;
61685;SDS011;47592;45.904;8.978;2023-03-05T13:23:30;26.88;;;14.68;;
61685;SDS011;47592;45.904;8.978;2023-03-05T13:26:18;22.45;;;13.35;;
61685;SDS011;47592;45.904;8.978;2023-03-05T13:28:44;20.75;;;13.68;;
61685;SDS011;47592;45.904;8.978;2023-03-05T13:31:30;21.67;;;13.55;;
61685;SDS011;47592;45.904;8.978;2023-03-05T13:33:56;24.27;;;14.70;;
61685;SDS011;47592;45.904;8.978;2023-03-05T13:36:29;21.08;;;14.02;;
61685;SDS011;47592;45.904;8.978;2023-03-05T13:38:55;23.15;;;13.65;;
61685;SDS011;47592;45.904;8.978;2023-03-05T13:41:27;22.38;;;14.32;;
61685;SDS011;47592;45.904;8.978;2023-03-05T13:44:00;21.42;;;14.52;;
61685;SDS011;47592;45.904;8.978;2023-03-05T13:46:36;23.55;;;14.50;;
61685;SDS011;47592;45.904;8.978;2023-03-05T13:49:16;23.38;;;14.88;;
61685;SDS011;47592;45.904;8.978;2023-03-05T13:51:45;21.45;;;13.95;;
61685;SDS011;47592;45.904;8.978;2023-03-05T13:56:58;25.58;;;13.90;;
61685;SDS011;47592;45.904;8.978;2023-03-05T13:59:25;25.10;;;14.88;;
61685;SDS011;47592;45.904;8.978;2023-03-05T14:01:55;26.20;;;14.98;;
61685;SDS011;47592;45.904;8.978;2023-03-05T14:04:23;23.88;;;15.60;;
61685;SDS011;47592;45.904;8.978;2023-03-05T14:07:07;23.80;;;14.57;;
61685;SDS011;47592;45.904;8.978;2023-03-05T14:09:46;22.23;;;14.63;;
61685;SDS011;47592;45.904;8.978;2023-03-05T14:12:23;23.77;;;14.13;;
61685;SDS011;47592;45.904;8.978;2023-03-05T14:14:54;24.48;;;14.82;;
61685;SDS011;47592;45.904;8.978;2023-03-05T14:22:38;23.90;;;15.77;;
61685;SDS011;47592;45.904;8.978;2023-03-05T14:25:25;26.55;;;15.63;;
61685;SDS011;47592;45.904;8.978;2023-03-05T14:27:51;23.77;;;14.88;;
61685;SDS011;47592;45.904;8.978;2023-03-05T14:30:18;23.40;;;15.52;;
61685;SDS011;47592;45.904;8.978;2023-03-05T14:32:45;20.75;;;13.15;;
61685;SDS011;47592;45.904;8.978;2023-03-05T14:35:20;24.60;;;14.95;;
61685;SDS011;47592;45.904;8.978;2023-03-05T14:37:49;22.95;;;15.70;;
61685;SDS011;47592;45.904;8.978;2023-03-05T14:43:57;26.63;;;16.58;;
61685;SDS011;47592;45.904;8.978;2023-03-05T14:46:22;25.58;;;16.60;;
61685;SDS011;47592;45.904;8.978;2023-03-05T14:48:48;22.85;;;15.95;;
61685;SDS011;47592;45.904;8.978;2023-03-05T14:51:13;26.90;;;16.85;;
61685;SDS011;47592;45.904;8.978;2023-03-05T14:53:39;25.70;;;16.30;;
61685;SDS011;47592;45.904;8.978;2023-03-05T14:56:15;22.83;;;15.05;;
61685;SDS011;47592;45.904;8.978;2023-03-05T14:58:42;21.92;;;15.25;;
61685;SDS011;47592;45.904;8.978;2023-03-05T15:01:09;22.52;;;14.82;;
61685;SDS011;47592;45.904;8.978;2023-03-05T15:03:36;25.20;;;16.00;;
61685;SDS011;47592;45.904;8.978;2023-03-05T15:06:02;23.42;;;14.68;;
61685;SDS011;47592;45.904;8.978;2023-03-05T15:08:29;24.52;;;14.90;;
61685;SDS011;47592;45.904;8.978;2023-03-05T15:10:55;23.80;;;14.75;;
61685;SDS011;47592;45.904;8.978;2023-03-05T15:13:21;22.98;;;14.30;;
61685;SDS011;47592;45.904;8.978;2023-03-05T15:15:47;24.90;;;15.73;;
61685;SDS011;47592;45.904;8.978;2023-03-05T15:18:13;23.77;;;15.15;;
61685;SDS011;47592;45.904;8.978;2023-03-05T15:20:41;22.70;;;14.70;;
61685;SDS011;47592;45.904;8.978;2023-03-05T15:23:06;22.92;;;15.07;;
61685;SDS011;47592;45.904;8.978;2023-03-05T15:25:32;21.77;;;13.65;;
61685;SDS011;47592;45.904;8.978;2023-03-05T15:27:57;22.30;;;13.43;;
61685;SDS011;47592;45.904;8.978;2023-03-05T15:30:24;22.50;;;13.82;;
61685;SDS011;47592;45.904;8.978;2023-03-05T15:32:53;24.42;;;14.38;;
61685;SDS011;47592;45.904;8.978;2023-03-05T15:35:19;22.77;;;12.82;;
61685;SDS011;47592;45.904;8.978;2023-03-05T15:37:45;20.90;;;13.25;;
61685;SDS011;47592;45.904;8.978;2023-03-05T15:40:11;20.55;;;13.52;;
61685;SDS011;47592;45.904;8.978;2023-03-05T15:42:36;23.35;;;13.50;;
61685;SDS011;47592;45.904;8.978;2023-03-05T15:45:02;22.27;;;12.85;;
61685;SDS011;47592;45.904;8.978;2023-03-05T15:47:28;19.98;;;12.50;;
61685;SDS011;47592;45.904;8.978;2023-03-05T15:49:53;23.33;;;13.43;;
61685;SDS011;47592;45.904;8.978;2023-03-05T15:52:18;21.92;;;12.88;;
61685;SDS011;47592;45.904;8.978;2023-03-05T15:54:44;20.58;;;13.23;;
61685;SDS011;47592;45.904;8.978;2023-03-05T15:57:09;20.92;;;12.73;;
61685;SDS011;47592;45.904;8.978;2023-03-05T15:59:35;22.38;;;13.45;;
61685;SDS011;47592;45.904;8.978;2023-03-05T16:02:01;19.52;;;12.90;;
61685;SDS011;47592;45.904;8.978;2023-03-05T16:04:27;20.90;;;11.35;;
61685;SDS011;47592;45.904;8.978;2023-03-05T16:06:55;17.77;;;11.43;;